Atlantic, Maine
Current Conditions -  °F | °C
As of 5:55 AM on Thursday 23 Oct 2014 (Local Time) from KBHB Reporting Station
Overcast Overcast  
Wind Chill: 50°   Ceiling: 1000
Heat Index: 50°   Visibility: 7mi
Dew Point: 48°   Wind: 16mph
Humidity: 94%   Direction: 40°NE
Pressure: 29.91"   Gusts: 24mph
Location:  44.1716°N, 68.4245°W
Report Text: KBHB 230955Z AUTO 04014G21KT 7SM OVC010 10/09 A2991 RMK AO1 P0024
Loading
Personal Weather Stations






























Interactive Weather Map
Tropical Storm Tracking
New forecast layout! Learn more

10-Day Weather Forecast

Advertisements
Track Severe Weather on mobile